Time;durP1;ratioP1;P1;durP2;ratioP2;P2;SDS_P1;SDS_P2;PMS_P1;PMS_P2;Temp;Humidity;BMP_temperature;BMP_pressure;BME280_temperature;BME280_humidity;BME280_pressure;Samples;Min_cycle;Max_cycle;Signal;HPM_P1;HPM_P2
2023/10/26 00:03:49;;;;;;;2.65;2.55;;;;;;;;;;10429235;28;20246;-74
2023/10/26 00:08:50;;;;;;;2.53;2.42;;;;;;;;;;10448972;28;20696;-74
2023/10/26 00:13:51;;;;;;;2.47;2.38;;;;;;;;;;10460293;28;20301;-73
2023/10/26 00:18:52;;;;;;;2.85;2.75;;;;;;;;;;10453390;28;20292;-73
2023/10/26 00:23:53;;;;;;;2.25;2.15;;;;;;;;;;10468569;28;20214;-74
2023/10/26 00:28:54;;;;;;;2.28;2.28;;;;;;;;;;10421581;28;20564;-73
2023/10/26 00:33:55;;;;;;;1.98;1.98;;;;;;;;;;10423031;28;20214;-73
2023/10/26 00:38:56;;;;;;;2.47;2.38;;;;;;;;;;10418474;28;20211;-74
2023/10/26 00:43:57;;;;;;;2.78;1.52;;;;;;;;;;10404897;28;20222;-73
2023/10/26 00:48:59;;;;;;;2.03;1.92;;;;;;;;;;10420079;28;20221;-74
2023/10/26 00:54:00;;;;;;;2.28;2.20;;;;;;;;;;10410516;28;20661;-73
2023/10/26 00:59:03;;;;;;;1.73;1.63;;;;;;;;;;10392808;28;20245;-73
2023/10/26 01:04:05;;;;;;;1.60;1.60;;;;;;;;;;10402039;28;20333;-73
2023/10/26 01:09:06;;;;;;;1.60;1.50;;;;;;;;;;10408789;28;20211;-73
2023/10/26 01:14:08;;;;;;;1.70;1.70;;;;;;;;;;10416197;28;20219;-72
2023/10/26 01:19:09;;;;;;;1.80;1.73;;;;;;;;;;10421495;28;20241;-73
2023/10/26 01:24:10;;;;;;;2.00;2.00;;;;;;;;;;10409661;28;20210;-73
2023/10/26 01:29:11;;;;;;;1.55;1.55;;;;;;;;;;10421074;28;20936;-73
2023/10/26 01:34:13;;;;;;;1.95;1.77;;;;;;;;;;10417762;28;20276;-72
2023/10/26 01:39:16;;;;;;;1.80;1.80;;;;;;;;;;10409656;28;20215;-72
2023/10/26 01:44:17;;;;;;;2.00;1.90;;;;;;;;;;10406413;28;20807;-73
2023/10/26 01:49:19;;;;;;;2.15;2.13;;;;;;;;;;10410910;28;20207;-73
2023/10/26 01:54:20;;;;;;;2.35;2.25;;;;;;;;;;10417216;28;20230;-73
2023/10/26 01:59:21;;;;;;;2.60;2.50;;;;;;;;;;10405838;28;20528;-74
2023/10/26 02:04:22;;;;;;;4.10;3.80;;;;;;;;;;10407947;28;20441;-73
2023/10/26 02:09:23;;;;;;;4.22;3.92;;;;;;;;;;10417666;28;20703;-73
2023/10/26 02:14:24;;;;;;;5.07;4.55;;;;;;;;;;10422494;28;20379;-72
2023/10/26 02:19:25;;;;;;;7.15;4.57;;;;;;;;;;10403127;28;20708;-73
2023/10/26 02:24:27;;;;;;;5.25;4.82;;;;;;;;;;10417088;28;20752;-73
2023/10/26 02:29:29;;;;;;;7.05;5.50;;;;;;;;;;10425959;28;20225;-73
2023/10/26 02:34:30;;;;;;;5.90;5.15;;;;;;;;;;10442306;28;20217;-73
2023/10/26 02:39:31;;;;;;;6.07;5.50;;;;;;;;;;10419805;28;20695;-73
2023/10/26 02:44:32;;;;;;;6.07;5.40;;;;;;;;;;10415298;28;20231;-75
2023/10/26 02:49:33;;;;;;;6.93;5.55;;;;;;;;;;10396783;28;20725;-73
2023/10/26 02:54:34;;;;;;;5.22;4.72;;;;;;;;;;10397959;28;20245;-74
2023/10/26 02:59:35;;;;;;;5.00;4.40;;;;;;;;;;10410368;28;20302;-73
2023/10/26 03:04:37;;;;;;;5.22;4.72;;;;;;;;;;10411294;28;20277;-73
2023/10/26 03:09:38;;;;;;;4.40;4.10;;;;;;;;;;10412782;28;20408;-75
2023/10/26 03:14:39;;;;;;;5.82;4.47;;;;;;;;;;10422256;28;20213;-73
2023/10/26 03:19:40;;;;;;;4.75;4.30;;;;;;;;;;10395733;28;20626;-73
2023/10/26 03:24:41;;;;;;;4.30;3.90;;;;;;;;;;10413141;28;20279;-74
2023/10/26 03:29:43;;;;;;;3.78;3.60;;;;;;;;;;10400195;28;20230;-74
2023/10/26 03:34:45;;;;;;;8.07;4.38;;;;;;;;;;10414099;28;20273;-75
2023/10/26 03:39:47;;;;;;;4.00;3.75;;;;;;;;;;10431570;28;20595;-74
2023/10/26 03:44:48;;;;;;;4.25;3.60;;;;;;;;;;10446073;28;20206;-73
2023/10/26 03:49:53;;;;;;;4.97;4.57;;;;;;;;;;10446701;28;20198;-72
2023/10/26 03:54:54;;;;;;;5.88;5.35;;;;;;;;;;10464680;28;20221;-73
2023/10/26 03:59:55;;;;;;;6.57;4.90;;;;;;;;;;10441041;28;20326;-73
2023/10/26 04:04:56;;;;;;;6.22;4.47;;;;;;;;;;10418151;28;20263;-73
2023/10/26 04:09:57;;;;;;;5.90;4.57;;;;;;;;;;10441814;28;20287;-74
2023/10/26 04:14:58;;;;;;;5.15;4.65;;;;;;;;;;10458302;28;20215;-75
2023/10/26 04:19:59;;;;;;;5.30;4.75;;;;;;;;;;10451827;28;20474;-73
2023/10/26 04:25:00;;;;;;;4.82;4.40;;;;;;;;;;10466396;28;20245;-73
2023/10/26 04:30:01;;;;;;;4.35;3.97;;;;;;;;;;10461057;28;20731;-73
2023/10/26 04:35:02;;;;;;;3.85;3.65;;;;;;;;;;10445642;28;20237;-73
2023/10/26 04:40:03;;;;;;;4.85;4.45;;;;;;;;;;10460701;28;20214;-75
2023/10/26 04:45:04;;;;;;;4.97;4.30;;;;;;;;;;10434530;28;20256;-73
2023/10/26 04:50:06;;;;;;;6.90;4.28;;;;;;;;;;10440407;28;20228;-73
2023/10/26 04:55:07;;;;;;;5.45;4.47;;;;;;;;;;10447325;28;20584;-74
2023/10/26 05:00:09;;;;;;;3.70;3.38;;;;;;;;;;10460724;28;20554;-75
2023/10/26 05:05:10;;;;;;;4.22;3.55;;;;;;;;;;10423278;28;20205;-73
2023/10/26 05:10:11;;;;;;;4.20;3.85;;;;;;;;;;10441443;28;20300;-73
2023/10/26 05:15:12;;;;;;;3.85;3.55;;;;;;;;;;10442381;28;20204;-73
2023/10/26 05:20:13;;;;;;;4.60;3.63;;;;;;;;;;10449309;28;20195;-77
2023/10/26 05:25:14;;;;;;;4.13;3.80;;;;;;;;;;10444164;28;20217;-74
2023/10/26 05:30:15;;;;;;;4.22;3.92;;;;;;;;;;10447360;28;20271;-73
2023/10/26 05:35:18;;;;;;;6.70;4.55;;;;;;;;;;10432100;28;20203;-73
2023/10/26 05:40:19;;;;;;;6.15;4.47;;;;;;;;;;10453525;28;20186;-75
2023/10/26 05:45:20;;;;;;;5.90;4.88;;;;;;;;;;10454994;28;20861;-72
2023/10/26 05:50:22;;;;;;;6.07;4.55;;;;;;;;;;10438264;28;20312;-74
2023/10/26 05:55:23;;;;;;;4.13;3.83;;;;;;;;;;10441842;28;20258;-74
2023/10/26 06:00:25;;;;;;;4.55;4.15;;;;;;;;;;10446284;28;20210;-73
2023/10/26 06:05:26;;;;;;;3.80;3.47;;;;;;;;;;10442491;28;20684;-73
2023/10/26 06:10:27;;;;;;;4.93;3.63;;;;;;;;;;10426126;28;20232;-72
2023/10/26 06:15:29;;;;;;;3.88;3.58;;;;;;;;;;10438089;28;20399;-74
2023/10/26 06:20:30;;;;;;;3.67;3.42;;;;;;;;;;10448060;28;20217;-75
2023/10/26 06:25:38;;;;;;;4.45;4.07;;;;;;;;;;10437328;28;20675;-77
2023/10/26 06:30:40;;;;;;;4.10;3.80;;;;;;;;;;10427490;28;20257;-73
2023/10/26 06:35:41;;;;;;;4.55;4.15;;;;;;;;;;10430682;28;20314;-75
2023/10/26 06:40:44;;;;;;;3.45;3.25;;;;;;;;;;10440563;28;20232;-72
2023/10/26 06:45:46;;;;;;;3.50;3.22;;;;;;;;;;10444322;28;20226;-75
2023/10/26 06:50:47;;;;;;;3.70;3.47;;;;;;;;;;10441147;28;20233;-75
2023/10/26 06:55:48;;;;;;;4.15;3.85;;;;;;;;;;10429947;28;20846;-72
2023/10/26 07:00:49;;;;;;;3.55;3.28;;;;;;;;;;10459320;28;20731;-72
2023/10/26 07:05:51;;;;;;;3.53;3.33;;;;;;;;;;10448939;28;20244;-73
2023/10/26 07:10:53;;;;;;;4.63;4.00;;;;;;;;;;10451702;28;20312;-75
2023/10/26 07:15:58;;;;;;;3.83;3.53;;;;;;;;;;10441092;28;20228;-74
2023/10/26 07:21:04;;;;;;;3.03;2.90;;;;;;;;;;10421749;28;20882;-72
2023/10/26 07:26:05;;;;;;;3.47;3.20;;;;;;;;;;10434479;28;20700;-75
2023/10/26 07:31:06;;;;;;;2.97;2.78;;;;;;;;;;10442052;28;20233;-75
2023/10/26 07:36:07;;;;;;;4.00;2.58;;;;;;;;;;10435383;28;20303;-75
2023/10/26 07:41:08;;;;;;;3.72;2.90;;;;;;;;;;10449160;28;20763;-73
2023/10/26 07:46:09;;;;;;;2.25;2.15;;;;;;;;;;10433833;28;21852;-74
2023/10/26 07:51:10;;;;;;;2.60;2.38;;;;;;;;;;10447343;28;20229;-73
2023/10/26 07:56:11;;;;;;;2.22;2.13;;;;;;;;;;10415417;28;21171;-75
2023/10/26 08:01:12;;;;;;;1.98;1.98;;;;;;;;;;10452136;28;20211;-75
2023/10/26 08:06:14;;;;;;;2.35;2.25;;;;;;;;;;10432285;28;20284;-75
2023/10/26 08:11:15;;;;;;;3.00;2.78;;;;;;;;;;10442182;28;20619;-74
2023/10/26 08:16:16;;;;;;;2.35;1.98;;;;;;;;;;10433265;28;20233;-73
2023/10/26 08:21:17;;;;;;;3.00;2.80;;;;;;;;;;10449252;28;20726;-72
2023/10/26 08:26:18;;;;;;;2.72;2.50;;;;;;;;;;10423408;28;20213;-73
2023/10/26 08:31:19;;;;;;;2.70;2.50;;;;;;;;;;10423610;28;20215;-72
2023/10/26 08:36:20;;;;;;;3.17;2.97;;;;;;;;;;10453415;28;20929;-73
2023/10/26 08:41:22;;;;;;;2.60;2.50;;;;;;;;;;10450581;28;20213;-71
2023/10/26 08:46:23;;;;;;;2.85;2.65;;;;;;;;;;10460741;28;20305;-72
2023/10/26 08:51:24;;;;;;;3.40;3.20;;;;;;;;;;10445568;28;20225;-73
2023/10/26 08:56:25;;;;;;;3.42;3.22;;;;;;;;;;10449394;28;20233;-74
2023/10/26 09:01:26;;;;;;;2.10;2.00;;;;;;;;;;10441124;28;20214;-73
2023/10/26 09:06:42;;;;;;;2.05;1.27;;;;;;;;;;10445927;28;20226;-73
2023/10/26 09:11:48;;;;;;;0.90;0.90;;;;;;;;;;10460084;28;20248;-73
2023/10/26 09:16:49;;;;;;;1.33;0.85;;;;;;;;;;10439181;28;20256;-75
2023/10/26 09:21:55;;;;;;;0.80;0.80;;;;;;;;;;10437879;28;20209;-73
2023/10/26 09:26:57;;;;;;;0.75;0.75;;;;;;;;;;10435909;28;20229;-73
2023/10/26 09:31:58;;;;;;;1.00;1.00;;;;;;;;;;10437146;28;20234;-73
2023/10/26 09:36:59;;;;;;;1.23;1.13;;;;;;;;;;10459848;28;20245;-72
2023/10/26 09:42:01;;;;;;;1.33;1.00;;;;;;;;;;10452924;28;20238;-73
2023/10/26 09:47:03;;;;;;;1.10;1.10;;;;;;;;;;10450041;28;20222;-73
2023/10/26 09:52:05;;;;;;;0.90;0.90;;;;;;;;;;10436393;28;20291;-75
2023/10/26 09:57:17;;;;;;;0.90;0.90;;;;;;;;;;10450598;28;20627;-73
2023/10/26 10:02:19;;;;;;;1.10;1.10;;;;;;;;;;10432703;28;20218;-74
2023/10/26 10:07:39;;;;;;;0.85;0.85;;;;;;;;;;10423634;28;20227;-73
2023/10/26 10:12:42;;;;;;;0.95;0.95;;;;;;;;;;10457112;28;20220;-72
2023/10/26 10:17:43;;;;;;;0.73;0.73;;;;;;;;;;10450280;28;20962;-73
2023/10/26 10:22:44;;;;;;;0.98;0.98;;;;;;;;;;10429212;28;20345;-72
2023/10/26 10:27:48;;;;;;;0.68;0.68;;;;;;;;;;10421948;28;20311;-73
2023/10/26 10:32:50;;;;;;;0.90;0.90;;;;;;;;;;10450783;28;20320;-74
2023/10/26 10:38:10;;;;;;;0.73;0.73;;;;;;;;;;10447039;28;20223;-74
2023/10/26 10:43:12;;;;;;;1.08;1.08;;;;;;;;;;10447309;28;20277;-73
2023/10/26 10:48:13;;;;;;;0.90;0.90;;;;;;;;;;10443484;28;20210;-72
2023/10/26 10:53:15;;;;;;;0.88;0.88;;;;;;;;;;10421604;28;20671;-73
2023/10/26 10:58:16;;;;;;;0.60;0.60;;;;;;;;;;10449501;28;20703;-73
2023/10/26 11:03:22;;;;;;;1.17;1.17;;;;;;;;;;10433980;28;20214;-73
2023/10/26 11:08:23;;;;;;;2.35;2.22;;;;;;;;;;10431352;28;20215;-73
2023/10/26 11:13:24;;;;;;;3.17;2.97;;;;;;;;;;10442384;28;20249;-72
2023/10/26 11:18:25;;;;;;;4.10;3.72;;;;;;;;;;10440964;28;20206;-74
2023/10/26 11:23:26;;;;;;;4.28;3.88;;;;;;;;;;10417298;28;20715;-74
2023/10/26 11:28:34;;;;;;;4.90;4.45;;;;;;;;;;10419288;28;20337;-72
2023/10/26 11:33:37;;;;;;;3.88;3.50;;;;;;;;;;10426839;28;20822;-73
2023/10/26 11:38:51;;;;;;;2.75;2.60;;;;;;;;;;10416587;28;20232;-73
2023/10/26 11:43:52;;;;;;;2.72;2.53;;;;;;;;;;10450121;28;21052;-73
2023/10/26 11:48:53;;;;;;;2.67;2.50;;;;;;;;;;10415647;28;20238;-72
2023/10/26 11:53:55;;;;;;;2.03;1.92;;;;;;;;;;10431137;28;20219;-73
2023/10/26 11:58:56;;;;;;;2.45;2.35;;;;;;;;;;10446062;28;20213;-73
2023/10/26 12:03:57;;;;;;;2.00;1.90;;;;;;;;;;10429858;28;20218;-75
2023/10/26 12:08:58;;;;;;;1.70;1.70;;;;;;;;;;10455078;28;20258;-74
2023/10/26 12:13:59;;;;;;;1.85;1.85;;;;;;;;;;10440047;28;20223;-72
2023/10/26 12:19:00;;;;;;;2.63;2.53;;;;;;;;;;10458268;28;20237;-72
2023/10/26 12:24:01;;;;;;;2.80;2.50;;;;;;;;;;10440789;28;20222;-72
2023/10/26 12:29:03;;;;;;;2.97;2.88;;;;;;;;;;10449341;28;20772;-71
2023/10/26 12:34:04;;;;;;;3.15;3.00;;;;;;;;;;10436653;28;20716;-72
2023/10/26 12:39:05;;;;;;;4.65;3.03;;;;;;;;;;10427366;28;20209;-72
2023/10/26 12:44:07;;;;;;;3.60;3.30;;;;;;;;;;10423252;28;20252;-72
2023/10/26 12:49:08;;;;;;;2.90;2.75;;;;;;;;;;10432052;28;20214;-72
2023/10/26 12:54:10;;;;;;;2.97;2.88;;;;;;;;;;10443294;28;20756;-74
2023/10/26 12:59:11;;;;;;;2.88;2.78;;;;;;;;;;10427044;28;20279;-73
2023/10/26 13:04:12;;;;;;;2.88;2.78;;;;;;;;;;10416224;28;20210;-71
2023/10/26 13:09:13;;;;;;;2.92;2.83;;;;;;;;;;10459303;28;20233;-73
2023/10/26 13:14:14;;;;;;;2.92;2.70;;;;;;;;;;10456544;28;20222;-73
2023/10/26 13:19:15;;;;;;;3.83;3.40;;;;;;;;;;10449373;28;20305;-73
2023/10/26 13:24:16;;;;;;;2.63;2.53;;;;;;;;;;10434673;28;20222;-73
2023/10/26 13:29:17;;;;;;;2.58;2.58;;;;;;;;;;10456994;28;20825;-72
2023/10/26 13:34:18;;;;;;;2.33;2.22;;;;;;;;;;10443137;28;20300;-72
2023/10/26 13:39:21;;;;;;;2.60;2.50;;;;;;;;;;10436442;28;20305;-72
2023/10/26 13:44:22;;;;;;;3.05;2.95;;;;;;;;;;10450105;28;20242;-73
2023/10/26 13:49:23;;;;;;;3.17;2.97;;;;;;;;;;10454274;28;20254;-72
2023/10/26 13:54:24;;;;;;;3.40;3.22;;;;;;;;;;10459453;28;20217;-73
2023/10/26 13:59:25;;;;;;;11.63;5.57;;;;;;;;;;10443937;28;20293;-72
2023/10/26 14:04:26;;;;;;;9.80;5.88;;;;;;;;;;10423693;28;20228;-73
2023/10/26 14:09:30;;;;;;;4.82;4.43;;;;;;;;;;10456150;28;20221;-73
2023/10/26 14:14:34;;;;;;;4.60;4.05;;;;;;;;;;10423834;28;20295;-73
2023/10/26 14:19:35;;;;;;;3.60;3.40;;;;;;;;;;10454895;28;20268;-72
2023/10/26 14:24:36;;;;;;;2.80;2.63;;;;;;;;;;10457189;28;20368;-71
2023/10/26 14:29:37;;;;;;;2.83;2.70;;;;;;;;;;10437058;28;20235;-72
2023/10/26 14:34:38;;;;;;;4.43;2.83;;;;;;;;;;10449880;28;20264;-72
2023/10/26 14:39:39;;;;;;;3.63;3.42;;;;;;;;;;10455418;28;20236;-72
2023/10/26 14:44:40;;;;;;;3.17;3.08;;;;;;;;;;10452289;28;20238;-71
2023/10/26 14:49:42;;;;;;;3.08;2.85;;;;;;;;;;10453558;28;20207;-72
2023/10/26 14:54:43;;;;;;;2.85;2.75;;;;;;;;;;10435748;28;20653;-72
2023/10/26 14:59:44;;;;;;;2.78;2.72;;;;;;;;;;10430525;28;20299;-72
2023/10/26 15:04:45;;;;;;;2.50;2.35;;;;;;;;;;10444588;28;20229;-73
2023/10/26 15:09:46;;;;;;;2.70;2.60;;;;;;;;;;10414539;28;20212;-72
2023/10/26 15:14:47;;;;;;;2.83;2.70;;;;;;;;;;10434653;28;20226;-73
2023/10/26 15:19:48;;;;;;;3.85;3.55;;;;;;;;;;10449743;28;20226;-72
2023/10/26 15:24:50;;;;;;;3.35;3.00;;;;;;;;;;10449240;28;20217;-71
2023/10/26 15:29:51;;;;;;;3.47;3.28;;;;;;;;;;10442746;28;20594;-72
2023/10/26 15:34:52;;;;;;;4.03;3.78;;;;;;;;;;10449418;28;20253;-72
2023/10/26 15:39:53;;;;;;;4.50;4.13;;;;;;;;;;10455439;28;20700;-72
2023/10/26 15:44:54;;;;;;;3.70;3.40;;;;;;;;;;10446255;28;20226;-71
2023/10/26 15:49:56;;;;;;;5.63;4.05;;;;;;;;;;10436368;28;20206;-72
2023/10/26 15:54:57;;;;;;;5.43;4.93;;;;;;;;;;10458691;28;20287;-73
2023/10/26 15:59:58;;;;;;;19.75;9.90;;;;;;;;;;10421021;28;20582;-71
2023/10/26 16:04:59;;;;;;;8.80;6.70;;;;;;;;;;10433315;28;20234;-72
2023/10/26 16:10:00;;;;;;;5.53;5.03;;;;;;;;;;9997917;28;21612;-74
2023/10/26 16:15:01;;;;;;;5.38;4.97;;;;;;;;;;9675436;28;20348;-73
2023/10/26 16:20:03;;;;;;;4.50;4.10;;;;;;;;;;9678952;28;21585;-73
2023/10/26 16:25:04;;;;;;;4.38;3.97;;;;;;;;;;9696845;28;20304;-74
2023/10/26 16:30:06;;;;;;;4.53;4.13;;;;;;;;;;9686320;28;21750;-73
2023/10/26 16:35:09;;;;;;;5.10;4.60;;;;;;;;;;9657856;28;22228;-73
2023/10/26 16:40:11;;;;;;;6.50;5.90;;;;;;;;;;9647061;28;21849;-73
2023/10/26 16:45:12;;;;;;;7.72;6.03;;;;;;;;;;9637095;28;21519;-73
2023/10/26 16:50:14;;;;;;;4.60;4.30;;;;;;;;;;9698596;28;21519;-74
2023/10/26 16:55:15;;;;;;;4.32;3.90;;;;;;;;;;9696383;28;20803;-72
2023/10/26 17:00:17;;;;;;;5.35;4.90;;;;;;;;;;9672360;28;21842;-75
2023/10/26 17:05:18;;;;;;;5.35;4.85;;;;;;;;;;9226806;28;21332;-74
2023/10/26 17:10:19;;;;;;;6.13;5.28;;;;;;;;;;9134324;28;21223;-74
2023/10/26 17:15:20;;;;;;;5.22;4.82;;;;;;;;;;9178305;28;20836;-73
2023/10/26 17:20:21;;;;;;;5.50;4.97;;;;;;;;;;9249256;28;22277;-74
2023/10/26 17:25:22;;;;;;;5.43;5.03;;;;;;;;;;9578356;28;20210;-75
2023/10/26 17:30:23;;;;;;;5.95;5.45;;;;;;;;;;10457091;28;20228;-73
2023/10/26 17:35:24;;;;;;;5.13;4.72;;;;;;;;;;10445755;28;20635;-76
2023/10/26 17:40:25;;;;;;;6.20;5.38;;;;;;;;;;10433825;28;20214;-75
2023/10/26 17:45:26;;;;;;;5.65;5.05;;;;;;;;;;10430909;28;20211;-73
2023/10/26 17:50:28;;;;;;;6.68;5.22;;;;;;;;;;10423598;28;20793;-73
2023/10/26 17:55:29;;;;;;;11.48;6.88;;;;;;;;;;10436474;28;20948;-72
2023/10/26 18:00:30;;;;;;;7.10;5.68;;;;;;;;;;10445970;28;20218;-72
2023/10/26 18:05:31;;;;;;;7.97;6.63;;;;;;;;;;10421804;28;20224;-75
2023/10/26 18:10:32;;;;;;;6.65;5.93;;;;;;;;;;10447951;28;20609;-73
2023/10/26 18:15:33;;;;;;;9.05;5.72;;;;;;;;;;10417689;28;20217;-72
2023/10/26 18:20:34;;;;;;;7.93;5.97;;;;;;;;;;10442654;28;20210;-73
2023/10/26 18:25:35;;;;;;;7.10;5.88;;;;;;;;;;10452899;28;20215;-74
2023/10/26 18:30:37;;;;;;;9.13;6.18;;;;;;;;;;10449257;28;21173;-76
2023/10/26 18:35:38;;;;;;;7.68;6.03;;;;;;;;;;10427064;28;20213;-71
2023/10/26 18:40:39;;;;;;;7.50;5.88;;;;;;;;;;10441524;28;20210;-76
2023/10/26 18:45:39;;;;;;;8.23;6.18;;;;;;;;;;10445573;28;20265;-72
2023/10/26 18:50:41;;;;;;;10.43;6.28;;;;;;;;;;10429046;28;20259;-75
2023/10/26 18:55:42;;;;;;;6.65;5.65;;;;;;;;;;10432664;28;20210;-75
2023/10/26 19:00:43;;;;;;;7.32;6.13;;;;;;;;;;10449160;28;20205;-73
2023/10/26 19:05:46;;;;;;;7.97;6.07;;;;;;;;;;10431480;28;20222;-75
2023/10/26 19:10:47;;;;;;;7.78;6.00;;;;;;;;;;10423616;28;20719;-75
2023/10/26 19:15:48;;;;;;;6.38;5.65;;;;;;;;;;10446214;28;20220;-76
2023/10/26 19:20:49;;;;;;;7.40;5.72;;;;;;;;;;10452080;28;20527;-75
2023/10/26 19:25:51;;;;;;;9.63;6.53;;;;;;;;;;10442698;28;20219;-72
2023/10/26 19:30:54;;;;;;;9.80;5.45;;;;;;;;;;10407650;28;20850;-75
2023/10/26 19:35:55;;;;;;;9.18;6.07;;;;;;;;;;10403280;28;20215;-75
2023/10/26 19:40:58;;;;;;;9.60;5.60;;;;;;;;;;9806903;28;22420;-74
2023/10/26 19:45:59;;;;;;;11.35;5.63;;;;;;;;;;9212275;28;21633;-74
2023/10/26 19:51:02;;;;;;;7.97;5.53;;;;;;;;;;9192468;28;21443;-74
2023/10/26 19:56:04;;;;;;;9.02;5.90;;;;;;;;;;9219214;28;21246;-74
2023/10/26 20:01:12;;;;;;;8.80;6.35;;;;;;;;;;9254609;28;21903;-74
2023/10/26 20:06:13;;;;;;;7.13;6.18;;;;;;;;;;9191524;28;21682;-74
2023/10/26 20:11:14;;;;;;;7.05;5.88;;;;;;;;;;9194405;28;21004;-73
2023/10/26 20:16:15;;;;;;;7.68;5.72;;;;;;;;;;9200246;28;21214;-74
2023/10/26 20:21:17;;;;;;;7.07;5.95;;;;;;;;;;9228829;28;20897;-76
2023/10/26 20:26:18;;;;;;;6.47;5.88;;;;;;;;;;9202400;28;21240;-76
2023/10/26 20:31:19;;;;;;;7.30;6.32;;;;;;;;;;9272316;28;20852;-75
2023/10/26 20:36:21;;;;;;;8.10;5.40;;;;;;;;;;9253134;28;21647;-76
2023/10/26 20:41:22;;;;;;;7.40;6.45;;;;;;;;;;9241331;28;22389;-74
2023/10/26 20:46:25;;;;;;;7.60;6.18;;;;;;;;;;9331639;28;21644;-75
2023/10/26 20:51:29;;;;;;;6.18;5.35;;;;;;;;;;9321809;28;21707;-75
2023/10/26 20:56:30;;;;;;;6.50;5.90;;;;;;;;;;9242560;28;21029;-75
2023/10/26 21:01:31;;;;;;;6.95;5.28;;;;;;;;;;9327171;28;22112;-75
2023/10/26 21:06:33;;;;;;;7.43;5.10;;;;;;;;;;9586894;28;20229;-77
2023/10/26 21:11:34;;;;;;;5.18;4.68;;;;;;;;;;9588288;28;21072;-78
2023/10/26 21:16:35;;;;;;;7.40;5.60;;;;;;;;;;9611650;28;21344;-76
2023/10/26 21:21:36;;;;;;;5.10;4.65;;;;;;;;;;9872865;28;20301;-73
2023/10/26 21:26:37;;;;;;;7.82;5.97;;;;;;;;;;10440454;28;20221;-74
2023/10/26 21:31:38;;;;;;;6.70;5.68;;;;;;;;;;10435447;28;20584;-74
2023/10/26 21:36:39;;;;;;;8.52;6.50;;;;;;;;;;10431445;28;20244;-74
2023/10/26 21:41:40;;;;;;;9.23;6.07;;;;;;;;;;10441288;28;20230;-73
2023/10/26 21:46:42;;;;;;;9.82;6.28;;;;;;;;;;10461263;28;20290;-71
2023/10/26 21:51:43;;;;;;;10.75;7.05;;;;;;;;;;10435663;28;20249;-73
2023/10/26 21:56:44;;;;;;;8.27;5.93;;;;;;;;;;10424626;28;20241;-71
2023/10/26 22:01:45;;;;;;;10.32;6.57;;;;;;;;;;10457033;28;20224;-73
2023/10/26 22:06:47;;;;;;;12.20;6.07;;;;;;;;;;10436264;28;20232;-71
2023/10/26 22:11:48;;;;;;;11.57;6.88;;;;;;;;;;10458796;28;20789;-73
2023/10/26 22:16:49;;;;;;;10.93;7.30;;;;;;;;;;10440054;28;20202;-73
2023/10/26 22:21:50;;;;;;;9.57;6.50;;;;;;;;;;10459812;28;20293;-74
2023/10/26 22:26:52;;;;;;;10.27;6.15;;;;;;;;;;10457428;28;20230;-72
2023/10/26 22:31:54;;;;;;;9.00;6.65;;;;;;;;;;10440463;28;20221;-72
2023/10/26 22:36:55;;;;;;;9.35;6.35;;;;;;;;;;10457951;28;20213;-76
2023/10/26 22:41:57;;;;;;;8.13;5.43;;;;;;;;;;10459454;28;20220;-71
2023/10/26 22:46:58;;;;;;;12.98;7.28;;;;;;;;;;10457363;28;20251;-75
2023/10/26 22:51:59;;;;;;;7.53;5.55;;;;;;;;;;10459522;28;20226;-73
2023/10/26 22:57:00;;;;;;;9.20;6.00;;;;;;;;;;10456771;28;20754;-74
2023/10/26 23:02:01;;;;;;;8.77;5.88;;;;;;;;;;10453434;28;20269;-72
2023/10/26 23:07:02;;;;;;;8.10;5.50;;;;;;;;;;10458869;28;20355;-73
2023/10/26 23:12:04;;;;;;;8.10;5.32;;;;;;;;;;10459504;28;20790;-73
2023/10/26 23:17:05;;;;;;;7.53;5.22;;;;;;;;;;10456074;28;20213;-73
2023/10/26 23:22:08;;;;;;;6.50;4.72;;;;;;;;;;10441339;28;20249;-74
2023/10/26 23:27:09;;;;;;;6.50;4.82;;;;;;;;;;10453108;28;20253;-74
2023/10/26 23:32:10;;;;;;;6.30;4.57;;;;;;;;;;10460512;28;20256;-74
2023/10/26 23:37:13;;;;;;;7.97;5.50;;;;;;;;;;10447305;28;20207;-72
2023/10/26 23:42:14;;;;;;;8.10;6.13;;;;;;;;;;10180212;28;20229;-76
2023/10/26 23:47:15;;;;;;;8.40;5.75;;;;;;;;;;9698970;28;22382;-76
2023/10/26 23:52:17;;;;;;;7.20;5.65;;;;;;;;;;9690108;28;20217;-76
2023/10/26 23:57:18;;;;;;;10.07;5.60;;;;;;;;;;9704532;28;20294;-76
